Time;durP1;ratioP1;P1;durP2;ratioP2;P2;SDS_P1;SDS_P2;PMS_P1;PMS_P2;Temp;Humidity;BMP_temperature;BMP_pressure;BME280_temperature;BME280_humidity;BME280_pressure;Samples;Min_cycle;Max_cycle;Signal;HPM_P1;HPM_P2
2021/07/18 00:00:31;;;;;;;10.90;7.72;;;16.80;83.20;;;;;;5079386;28;20441;-76
2021/07/18 00:02:57;;;;;;;11.18;8.10;;;16.80;83.30;;;;;;5084453;28;20032;-76
2021/07/18 00:05:23;;;;;;;13.23;8.30;;;16.80;83.30;;;;;;5073104;28;20025;-76
2021/07/18 00:07:49;;;;;;;15.45;8.50;;;16.70;83.50;;;;;;5079700;28;20119;-76
2021/07/18 00:10:15;;;;;;;11.90;8.70;;;16.70;83.50;;;;;;5081335;28;20445;-76
2021/07/18 00:12:41;;;;;;;14.98;8.50;;;16.80;83.50;;;;;;5080829;28;20024;-76
2021/07/18 00:15:09;;;;;;;12.00;8.85;;;16.70;83.50;;;;;;5078228;28;20078;-76
2021/07/18 00:17:39;;;;;;;12.55;8.48;;;16.70;83.60;;;;;;5078393;28;20389;-76
2021/07/18 00:20:09;;;;;;;12.55;8.52;;;16.70;83.60;;;;;;5082757;28;20039;-76
2021/07/18 00:22:34;;;;;;;14.02;9.30;;;16.70;83.80;;;;;;5072303;28;20041;-76
2021/07/18 00:25:00;;;;;;;13.65;8.75;;;16.70;83.70;;;;;;5078675;28;20064;-76
2021/07/18 00:27:26;;;;;;;15.75;9.10;;;16.60;83.90;;;;;;5080177;28;20079;-76
2021/07/18 00:29:52;;;;;;;17.23;9.45;;;16.60;84.00;;;;;;5080399;28;20025;-76
2021/07/18 00:32:18;;;;;;;12.50;9.15;;;16.60;84.10;;;;;;5073641;28;20395;-76
2021/07/18 00:34:44;;;;;;;12.40;8.68;;;16.60;84.10;;;;;;5082476;28;20036;-77
2021/07/18 00:37:10;;;;;;;12.70;8.77;;;16.60;84.20;;;;;;5073581;28;20046;-76
2021/07/18 00:39:35;;;;;;;13.65;9.45;;;16.60;84.20;;;;;;5078483;28;20032;-76
2021/07/18 00:42:02;;;;;;;13.07;10.07;;;16.60;84.20;;;;;;5085948;28;20044;-77
2021/07/18 00:44:27;;;;;;;13.15;9.68;;;16.60;84.40;;;;;;5075654;28;20172;-75
2021/07/18 00:46:53;;;;;;;15.07;9.52;;;16.60;84.40;;;;;;5083395;28;20036;-76
2021/07/18 00:49:19;;;;;;;14.43;9.90;;;16.60;84.50;;;;;;5080573;28;20043;-75
2021/07/18 00:51:44;;;;;;;14.55;10.57;;;16.50;84.60;;;;;;5074914;28;20123;-76
2021/07/18 00:54:10;;;;;;;14.13;10.00;;;16.60;84.70;;;;;;5077796;28;20131;-75
2021/07/18 00:56:37;;;;;;;13.70;9.52;;;16.50;84.90;;;;;;5083041;28;20398;-75
2021/07/18 00:59:03;;;;;;;15.60;9.95;;;16.50;85.00;;;;;;5079716;28;20043;-75
2021/07/18 01:01:28;;;;;;;13.18;9.88;;;16.50;85.00;;;;;;5073553;28;20132;-74
2021/07/18 01:03:55;;;;;;;15.25;10.55;;;16.50;85.00;;;;;;5078634;28;20036;-75
2021/07/18 01:06:21;;;;;;;13.52;9.68;;;16.50;85.10;;;;;;5081031;28;20039;-75
2021/07/18 01:08:47;;;;;;;13.27;9.57;;;16.50;85.10;;;;;;5078247;28;20059;-75
2021/07/18 01:11:12;;;;;;;13.35;9.15;;;16.50;84.90;;;;;;5083919;28;20039;-75
2021/07/18 01:13:39;;;;;;;13.93;10.25;;;16.40;84.80;;;;;;5075429;28;20147;-75
2021/07/18 01:16:05;;;;;;;14.65;9.93;;;16.40;84.80;;;;;;5077534;28;20041;-74
2021/07/18 01:18:31;;;;;;;13.32;9.60;;;16.40;84.80;;;;;;5075246;28;20032;-74
2021/07/18 01:20:57;;;;;;;15.43;9.52;;;16.30;84.80;;;;;;5085261;28;20044;-75
2021/07/18 01:23:23;;;;;;;12.35;9.32;;;16.30;84.70;;;;;;5081708;28;20475;-76
2021/07/18 01:25:52;;;;;;;15.13;10.15;;;16.30;84.80;;;;;;5081622;28;20059;-75
2021/07/18 01:28:19;;;;;;;14.52;9.73;;;16.30;84.80;;;;;;5073980;28;20103;-76
2021/07/18 01:30:45;;;;;;;12.65;8.93;;;16.20;84.60;;;;;;5081423;28;20032;-76
2021/07/18 01:33:11;;;;;;;13.80;9.32;;;16.20;84.60;;;;;;5084125;28;20024;-77
2021/07/18 01:35:37;;;;;;;11.82;8.85;;;16.10;84.80;;;;;;5084074;28;20073;-76
2021/07/18 01:38:07;;;;;;;13.02;9.18;;;16.10;84.90;;;;;;5082675;28;20119;-76
2021/07/18 01:40:33;;;;;;;13.00;8.70;;;16.10;85.00;;;;;;5082078;28;20114;-76
2021/07/18 01:42:59;;;;;;;11.95;9.18;;;16.10;84.80;;;;;;5073832;28;20484;-78
2021/07/18 01:45:26;;;;;;;13.15;9.82;;;16.10;84.70;;;;;;5077380;28;20036;-76
2021/07/18 01:47:52;;;;;;;12.90;8.73;;;16.10;84.70;;;;;;5077690;28;20043;-76
2021/07/18 01:50:18;;;;;;;12.40;9.25;;;16.10;84.80;;;;;;5075484;28;20032;-76
2021/07/18 01:52:44;;;;;;;13.38;9.23;;;16.10;84.80;;;;;;5073825;28;20043;-76
2021/07/18 01:55:11;;;;;;;13.73;9.63;;;16.00;84.70;;;;;;5078804;28;20054;-77
2021/07/18 01:57:37;;;;;;;14.70;10.60;;;16.10;84.80;;;;;;5074693;28;20024;-75
2021/07/18 02:00:07;;;;;;;13.85;9.88;;;16.00;84.80;;;;;;5074286;28;20025;-77
2021/07/18 02:02:33;;;;;;;14.13;10.32;;;16.00;84.90;;;;;;5073930;28;20142;-76
2021/07/18 02:04:59;;;;;;;14.10;10.23;;;16.00;85.00;;;;;;5070036;28;20112;-76
2021/07/18 02:07:28;;;;;;;17.92;10.85;;;15.90;85.00;;;;;;5075093;28;20040;-76
2021/07/18 02:09:57;;;;;;;14.75;10.00;;;15.80;85.20;;;;;;5082764;28;20069;-76
2021/07/18 02:12:23;;;;;;;15.23;11.40;;;15.80;85.40;;;;;;5071038;28;20055;-75
2021/07/18 02:14:48;;;;;;;13.52;10.57;;;15.80;85.60;;;;;;5074058;28;20106;-75
2021/07/18 02:17:14;;;;;;;16.02;10.48;;;15.80;85.80;;;;;;5070402;28;20036;-77
2021/07/18 02:19:40;;;;;;;14.43;10.57;;;15.80;85.90;;;;;;5077320;28;20035;-75
2021/07/18 02:22:10;;;;;;;15.05;11.45;;;15.70;86.00;;;;;;5081067;28;20052;-75
2021/07/18 02:24:36;;;;;;;15.68;11.18;;;15.70;86.10;;;;;;5072363;28;20117;-75
2021/07/18 02:27:02;;;;;;;15.88;11.95;;;15.70;86.30;;;;;;5069890;28;20468;-75
2021/07/18 02:29:28;;;;;;;16.17;11.88;;;15.70;86.50;;;;;;5070889;28;20494;-75
2021/07/18 02:31:54;;;;;;;15.63;11.27;;;15.70;86.50;;;;;;5079018;28;20024;-75
2021/07/18 02:34:20;;;;;;;18.20;11.80;;;15.70;86.40;;;;;;5070175;28;20024;-76
2021/07/18 02:36:46;;;;;;;15.45;11.38;;;15.70;86.50;;;;;;5074390;28;20025;-75
2021/07/18 02:39:12;;;;;;;16.08;11.02;;;15.70;86.50;;;;;;5074377;28;20504;-74
2021/07/18 02:41:37;;;;;;;15.93;12.27;;;15.60;86.40;;;;;;5078628;28;20120;-74
2021/07/18 02:44:07;;;;;;;15.73;12.23;;;15.60;86.30;;;;;;5068392;28;20099;-74
2021/07/18 02:46:33;;;;;;;17.13;13.38;;;15.60;86.30;;;;;;5071619;28;20107;-74
2021/07/18 02:48:59;;;;;;;16.20;12.52;;;15.60;86.80;;;;;;5076615;28;20028;-75
2021/07/18 02:51:24;;;;;;;17.30;12.55;;;15.60;86.90;;;;;;5073508;28;20502;-77
2021/07/18 02:53:50;;;;;;;16.60;12.77;;;15.60;87.00;;;;;;5075960;28;20034;-76
2021/07/18 02:56:16;;;;;;;16.88;12.57;;;15.60;86.90;;;;;;5074218;28;20066;-78
2021/07/18 02:58:42;;;;;;;16.27;12.27;;;15.60;87.00;;;;;;5079142;28;20043;-76
2021/07/18 03:01:07;;;;;;;15.98;12.50;;;15.60;87.00;;;;;;5076934;28;20098;-77
2021/07/18 03:03:33;;;;;;;20.50;12.88;;;15.50;87.00;;;;;;5071644;28;20029;-75
2021/07/18 03:05:59;;;;;;;15.50;11.85;;;15.60;87.00;;;;;;5083922;28;20362;-74
2021/07/18 03:08:25;;;;;;;15.95;12.05;;;15.60;86.90;;;;;;5075198;28;20047;-76
2021/07/18 03:10:51;;;;;;;15.13;11.43;;;15.50;86.90;;;;;;5071506;28;20044;-76
2021/07/18 03:13:17;;;;;;;17.58;11.63;;;15.50;86.80;;;;;;5078797;28;20048;-75
2021/07/18 03:15:42;;;;;;;17.25;12.00;;;15.50;86.70;;;;;;5076162;28;20440;-76
2021/07/18 03:18:08;;;;;;;15.63;12.55;;;15.50;86.70;;;;;;5076332;28;20115;-76
2021/07/18 03:20:34;;;;;;;17.63;12.02;;;15.50;86.70;;;;;;5078616;28;20442;-77
2021/07/18 03:23:00;;;;;;;14.45;11.20;;;15.50;86.60;;;;;;5075488;28;20478;-76
2021/07/18 03:25:26;;;;;;;14.50;11.43;;;15.40;86.50;;;;;;5075408;28;20036;-75
2021/07/18 03:27:52;;;;;;;17.20;12.25;;;15.40;86.50;;;;;;5079740;28;20036;-77
2021/07/18 03:30:20;;;;;;;17.52;13.02;;;15.40;86.60;;;;;;5077585;28;20403;-76
2021/07/18 03:32:46;;;;;;;16.55;11.85;;;15.30;86.60;;;;;;5075060;28;20025;-74
2021/07/18 03:35:13;;;;;;;16.98;12.10;;;15.30;86.50;;;;;;5074991;28;20025;-76
2021/07/18 03:37:39;;;;;;;15.93;11.38;;;15.30;86.60;;;;;;5071546;28;20093;-76
2021/07/18 03:40:08;;;;;;;16.05;11.90;;;15.30;86.50;;;;;;5073282;28;20165;-76
2021/07/18 03:42:34;;;;;;;13.88;10.45;;;15.30;86.40;;;;;;5080888;28;20032;-75
2021/07/18 03:44:59;;;;;;;14.10;11.38;;;15.30;86.30;;;;;;5079584;28;20037;-75
2021/07/18 03:47:25;;;;;;;16.45;11.32;;;15.20;86.10;;;;;;5075759;28;20024;-77
2021/07/18 03:49:51;;;;;;;14.52;10.77;;;15.30;86.10;;;;;;5073622;28;20040;-75
2021/07/18 03:52:16;;;;;;;18.48;12.40;;;15.20;86.00;;;;;;5075809;28;20122;-74
2021/07/18 03:54:42;;;;;;;20.10;13.60;;;15.20;86.10;;;;;;5074044;28;20085;-76
2021/07/18 03:57:08;;;;;;;18.80;13.45;;;15.20;86.30;;;;;;5078154;28;20031;-74
2021/07/18 03:59:34;;;;;;;17.73;13.55;;;15.20;86.50;;;;;;5078419;28;20032;-76
2021/07/18 04:01:59;;;;;;;17.88;13.55;;;15.20;86.70;;;;;;5074013;28;20052;-76
2021/07/18 04:04:26;;;;;;;15.65;12.77;;;15.30;86.70;;;;;;5079898;28;20150;-76
2021/07/18 04:06:51;;;;;;;15.88;11.80;;;15.30;86.70;;;;;;5085457;28;20024;-75
2021/07/18 04:09:17;;;;;;;13.95;11.13;;;15.20;86.80;;;;;;5074506;28;20032;-76
2021/07/18 04:11:43;;;;;;;17.67;12.20;;;15.20;86.80;;;;;;5080772;28;20141;-75
2021/07/18 04:14:08;;;;;;;15.60;11.52;;;15.20;87.00;;;;;;5078057;28;20032;-76
2021/07/18 04:16:34;;;;;;;16.48;11.85;;;15.20;87.10;;;;;;5080069;28;20036;-77
2021/07/18 04:19:00;;;;;;;16.55;12.98;;;15.30;87.00;;;;;;5074293;28;20036;-77
2021/07/18 04:21:26;;;;;;;15.15;11.73;;;15.30;86.90;;;;;;5077985;28;20051;-75
2021/07/18 04:23:52;;;;;;;14.73;11.90;;;15.30;87.00;;;;;;5074795;28;20029;-76
2021/07/18 04:26:18;;;;;;;14.82;12.32;;;15.40;87.00;;;;;;5073273;28;20861;-75
2021/07/18 04:28:43;;;;;;;15.23;12.63;;;15.40;87.10;;;;;;5076447;28;20119;-75
2021/07/18 04:31:09;;;;;;;15.13;11.82;;;15.50;87.10;;;;;;5072628;28;20032;-78
2021/07/18 04:33:35;;;;;;;15.85;12.10;;;15.50;87.10;;;;;;5075201;28;20041;-76
2021/07/18 04:36:01;;;;;;;14.00;11.32;;;15.60;87.00;;;;;;5077902;28;20111;-77
2021/07/18 04:38:26;;;;;;;14.38;12.02;;;15.60;86.80;;;;;;5070619;28;20048;-76
2021/07/18 04:40:52;;;;;;;15.48;12.52;;;15.60;86.70;;;;;;5079150;28;20280;-76
2021/07/18 04:43:18;;;;;;;18.80;13.23;;;15.70;86.70;;;;;;5074603;28;20033;-77
2021/07/18 04:45:43;;;;;;;15.48;12.73;;;15.70;86.80;;;;;;5068662;28;20060;-78
2021/07/18 04:48:09;;;;;;;17.85;15.15;;;15.80;86.70;;;;;;5072437;28;20040;-75
2021/07/18 04:50:35;;;;;;;17.60;14.02;;;15.80;86.60;;;;;;5071585;28;20040;-76
2021/07/18 04:53:00;;;;;;;17.30;13.93;;;15.90;86.50;;;;;;5074829;28;20078;-77
2021/07/18 04:55:27;;;;;;;18.73;13.73;;;16.00;86.50;;;;;;5075301;28;20079;-77
2021/07/18 04:57:53;;;;;;;19.02;15.05;;;16.10;86.40;;;;;;5074549;28;20516;-78
2021/07/18 05:00:23;;;;;;;18.75;15.38;;;16.10;86.40;;;;;;5077764;28;20040;-76
2021/07/18 05:02:49;;;;;;;17.17;14.38;;;16.20;86.30;;;;;;5076830;28;20766;-76
2021/07/18 05:05:17;;;;;;;21.13;18.27;;;16.30;86.30;;;;;;5075385;28;20063;-76
2021/07/18 05:07:47;;;;;;;23.00;19.55;;;16.30;86.10;;;;;;5073635;28;20394;-76
2021/07/18 05:10:14;;;;;;;25.63;22.77;;;16.40;86.50;;;;;;5074419;28;20299;-76
2021/07/18 05:12:39;;;;;;;25.05;22.40;;;16.40;86.80;;;;;;5076555;28;20052;-76
2021/07/18 05:15:06;;;;;;;26.00;21.92;;;16.50;87.10;;;;;;5079982;28;20071;-76
2021/07/18 05:17:32;;;;;;;24.38;21.77;;;16.50;87.20;;;;;;5075119;28;20027;-76
2021/07/18 05:19:58;;;;;;;26.90;22.67;;;16.60;87.20;;;;;;5080764;28;20028;-76
2021/07/18 05:22:25;;;;;;;28.38;23.33;;;16.60;87.10;;;;;;5076215;28;20036;-76
2021/07/18 05:24:53;;;;;;;29.20;21.50;;;16.70;87.20;;;;;;5073132;28;20035;-76
2021/07/18 05:27:19;;;;;;;26.40;21.48;;;16.70;87.40;;;;;;5075659;28;20123;-76
2021/07/18 05:29:44;;;;;;;19.98;17.00;;;17.10;87.80;;;;;;5076758;28;20028;-76
2021/07/18 05:32:10;;;;;;;19.55;15.27;;;18.40;85.00;;;;;;5070401;28;20356;-76
2021/07/18 05:34:36;;;;;;;16.45;13.98;;;19.90;79.10;;;;;;5080170;28;20040;-77
2021/07/18 05:37:02;;;;;;;17.33;12.82;;;21.00;74.20;;;;;;5075596;28;20535;-76
2021/07/18 05:39:27;;;;;;;15.85;12.30;;;22.00;70.80;;;;;;5083063;28;20032;-76
2021/07/18 05:41:53;;;;;;;16.35;12.05;;;22.60;67.50;;;;;;5072477;28;20047;-77
2021/07/18 05:44:18;;;;;;;13.75;10.98;;;22.90;66.40;;;;;;5076506;28;20097;-76
2021/07/18 05:46:44;;;;;;;15.85;10.77;;;23.70;64.30;;;;;;5071341;28;20414;-77
2021/07/18 05:49:10;;;;;;;14.55;11.27;;;24.10;62.80;;;;;;5073164;28;20036;-76
2021/07/18 05:51:35;;;;;;;13.90;11.32;;;24.30;61.90;;;;;;5076776;28;20043;-76
2021/07/18 05:54:01;;;;;;;15.48;11.10;;;24.70;60.70;;;;;;5073845;28;20032;-77
2021/07/18 05:56:27;;;;;;;14.80;12.40;;;24.70;59.50;;;;;;5075339;28;20040;-76
2021/07/18 05:58:52;;;;;;;15.90;11.32;;;24.50;61.50;;;;;;5073520;28;20425;-76
2021/07/18 06:01:18;;;;;;;16.95;12.30;;;24.10;61.80;;;;;;5070212;28;20471;-77
2021/07/18 06:03:43;;;;;;;15.68;12.32;;;23.40;63.80;;;;;;5075910;28;20020;-75
2021/07/18 06:06:09;;;;;;;18.77;12.93;;;22.70;65.40;;;;;;5070063;28;20081;-76
2021/07/18 06:08:34;;;;;;;17.00;12.65;;;21.60;69.90;;;;;;5089497;28;20502;-74
2021/07/18 06:11:00;;;;;;;17.80;13.07;;;20.80;73.40;;;;;;5079624;28;20044;-74
2021/07/18 06:13:26;;;;;;;15.80;12.65;;;20.50;74.60;;;;;;5075149;28;20067;-76
2021/07/18 06:15:52;;;;;;;19.25;13.73;;;20.10;76.10;;;;;;5075657;28;20047;-74
2021/07/18 06:18:17;;;;;;;16.42;13.07;;;19.80;77.30;;;;;;5072023;28;20478;-77
2021/07/18 06:20:43;;;;;;;16.17;13.07;;;19.80;78.00;;;;;;5076202;28;20043;-75
2021/07/18 06:23:09;;;;;;;16.73;12.90;;;19.70;78.30;;;;;;5066826;28;20153;-76
2021/07/18 06:25:34;;;;;;;16.13;12.38;;;19.80;78.10;;;;;;5077167;28;20043;-76
2021/07/18 06:28:00;;;;;;;15.65;12.40;;;20.00;78.40;;;;;;5075844;28;20182;-75
2021/07/18 06:30:26;;;;;;;16.58;12.35;;;20.10;77.30;;;;;;5079107;28;20028;-76
2021/07/18 06:32:51;;;;;;;16.70;12.40;;;20.10;77.80;;;;;;5074807;28;20040;-74
2021/07/18 06:35:17;;;;;;;16.27;12.40;;;20.30;76.70;;;;;;5079952;28;20043;-75
2021/07/18 06:37:43;;;;;;;16.23;12.27;;;20.30;76.90;;;;;;5081468;28;20078;-75
2021/07/18 06:40:10;;;;;;;14.07;11.73;;;20.60;76.70;;;;;;5077823;28;20453;-76
2021/07/18 06:42:35;;;;;;;17.75;11.32;;;20.80;76.80;;;;;;5080025;28;20048;-75
2021/07/18 06:45:01;;;;;;;15.75;11.35;;;21.00;75.70;;;;;;5077677;28;20047;-75
2021/07/18 06:47:27;;;;;;;13.93;10.35;;;21.20;75.60;;;;;;5079234;28;20036;-74
2021/07/18 06:49:55;;;;;;;14.48;10.05;;;21.50;74.30;;;;;;5081479;28;20363;-75
2021/07/18 06:52:25;;;;;;;14.20;9.52;;;21.60;74.00;;;;;;5075402;28;20045;-77
2021/07/18 06:54:51;;;;;;;14.63;10.20;;;21.70;73.00;;;;;;5077545;28;20038;-76
2021/07/18 06:57:17;;;;;;;15.27;9.70;;;21.80;72.70;;;;;;5079132;28;20036;-75
2021/07/18 06:59:43;;;;;;;14.32;9.40;;;22.00;72.20;;;;;;5079526;28;20047;-73
2021/07/18 07:02:08;;;;;;;15.48;10.13;;;22.10;71.70;;;;;;5077521;28;20382;-73
2021/07/18 07:04:34;;;;;;;13.07;8.77;;;22.10;71.90;;;;;;5082444;28;20062;-74
2021/07/18 07:06:59;;;;;;;12.90;8.80;;;22.30;72.40;;;;;;5084112;28;20028;-74
2021/07/18 07:09:25;;;;;;;11.98;8.80;;;22.40;71.00;;;;;;5078402;28;20163;-72
2021/07/18 07:11:51;;;;;;;13.77;8.35;;;22.50;71.00;;;;;;5075092;28;20047;-72
2021/07/18 07:14:17;;;;;;;11.65;7.78;;;22.50;70.80;;;;;;5079755;28;20035;-72
2021/07/18 07:16:42;;;;;;;10.13;7.80;;;22.60;69.80;;;;;;5083342;28;20076;-72
2021/07/18 07:19:10;;;;;;;10.43;7.57;;;22.60;68.90;;;;;;5084320;28;20031;-72
2021/07/18 07:21:36;;;;;;;10.70;7.15;;;22.50;69.00;;;;;;5084928;28;20528;-74
2021/07/18 07:24:01;;;;;;;12.10;8.40;;;22.50;70.00;;;;;;5079559;28;20048;-74
2021/07/18 07:26:27;;;;;;;12.02;7.25;;;22.80;69.40;;;;;;5080195;28;20040;-75
2021/07/18 07:28:53;;;;;;;11.18;7.60;;;23.00;68.90;;;;;;5077424;28;20103;-72
2021/07/18 07:31:19;;;;;;;10.70;7.05;;;23.10;68.90;;;;;;5075516;28;20354;-72
2021/07/18 07:33:44;;;;;;;11.82;7.57;;;23.10;68.90;;;;;;5085032;28;20032;-71
2021/07/18 07:36:10;;;;;;;10.95;6.55;;;23.00;67.80;;;;;;5078498;28;20070;-74
2021/07/18 07:38:36;;;;;;;11.68;7.40;;;23.00;68.40;;;;;;5079999;28;20055;-74
2021/07/18 07:41:01;;;;;;;10.65;6.60;;;23.00;68.30;;;;;;5081717;28;20035;-73
2021/07/18 07:43:27;;;;;;;9.23;6.10;;;23.30;66.90;;;;;;5086057;28;20038;-73
2021/07/18 07:45:53;;;;;;;8.85;5.03;;;23.20;67.00;;;;;;5083419;28;20048;-72
2021/07/18 07:48:20;;;;;;;9.95;6.50;;;23.40;66.40;;;;;;5076455;28;20037;-72
2021/07/18 07:50:46;;;;;;;9.00;5.97;;;23.40;66.10;;;;;;5075836;28;20036;-73
2021/07/18 07:53:12;;;;;;;10.50;5.60;;;23.50;65.00;;;;;;5077598;28;20491;-72
2021/07/18 07:55:38;;;;;;;11.23;6.70;;;23.50;65.30;;;;;;5076110;28;20044;-73
2021/07/18 07:58:06;;;;;;;12.85;8.02;;;23.70;65.90;;;;;;5076548;28;20037;-75
2021/07/18 08:00:32;;;;;;;10.15;6.65;;;23.80;66.80;;;;;;5077465;28;20449;-72
2021/07/18 08:02:58;;;;;;;9.38;6.80;;;24.10;66.50;;;;;;5079691;28;20037;-73
2021/07/18 08:05:23;;;;;;;12.30;7.15;;;24.30;66.50;;;;;;5076684;28;20124;-72
2021/07/18 08:07:49;;;;;;;13.80;6.97;;;24.30;64.70;;;;;;5078524;28;20067;-73
2021/07/18 08:10:18;;;;;;;13.15;7.30;;;24.30;64.00;;;;;;5082816;28;20043;-74
2021/07/18 08:12:44;;;;;;;9.63;6.50;;;24.40;64.30;;;;;;5080340;28;20454;-74
2021/07/18 08:15:12;;;;;;;9.63;6.57;;;24.60;65.00;;;;;;5084678;28;20070;-73
2021/07/18 08:17:38;;;;;;;9.88;5.90;;;24.90;63.10;;;;;;5082060;28;20485;-73
2021/07/18 08:20:13;;;;;;;8.93;5.35;;;24.80;61.60;;;;;;5081475;28;20085;-72
2021/07/18 08:22:39;;;;;;;8.73;4.63;;;24.60;61.40;;;;;;5081206;28;20049;-73
2021/07/18 08:25:06;;;;;;;10.02;6.03;;;24.50;60.40;;;;;;5075495;28;20044;-73
2021/07/18 08:27:32;;;;;;;11.35;6.95;;;24.50;63.40;;;;;;5073977;28;20044;-73
2021/07/18 08:29:58;;;;;;;9.90;6.50;;;24.70;64.30;;;;;;5081546;28;20082;-73
2021/07/18 08:32:23;;;;;;;7.55;5.05;;;24.70;62.30;;;;;;5080565;28;20039;-75
2021/07/18 08:34:49;;;;;;;9.18;5.50;;;24.80;60.60;;;;;;5076115;28;20039;-73
2021/07/18 08:37:15;;;;;;;10.23;6.38;;;25.10;60.90;;;;;;5081873;28;20028;-73
2021/07/18 08:39:40;;;;;;;10.88;6.50;;;25.00;60.60;;;;;;5073443;28;20130;-72
2021/07/18 08:42:07;;;;;;;10.00;6.13;;;25.00;61.60;;;;;;5077259;28;20054;-73
2021/07/18 08:44:34;;;;;;;9.93;5.38;;;25.30;61.90;;;;;;5080694;28;20086;-72
2021/07/18 08:47:00;;;;;;;9.30;6.45;;;25.50;60.80;;;;;;5075577;28;20746;-72
2021/07/18 08:49:26;;;;;;;9.68;6.25;;;25.40;59.30;;;;;;5081601;28;20069;-73
2021/07/18 08:51:53;;;;;;;12.75;8.02;;;25.20;61.00;;;;;;5081098;28;20050;-72
2021/07/18 08:54:23;;;;;;;11.52;8.00;;;25.20;62.50;;;;;;5080895;28;20093;-72
2021/07/18 08:56:49;;;;;;;10.63;7.18;;;25.40;61.10;;;;;;5075349;28;20454;-72
2021/07/18 08:59:15;;;;;;;11.70;6.60;;;25.50;62.20;;;;;;5076844;28;20036;-73
2021/07/18 09:01:43;;;;;;;11.70;6.72;;;25.50;60.30;;;;;;5077017;28;20081;-74
2021/07/18 09:04:09;;;;;;;9.88;6.28;;;25.20;60.80;;;;;;5078771;28;20108;-73
2021/07/18 09:06:49;;;;;;;8.65;5.88;;;25.30;60.30;;;;;;5075689;28;20110;-75
2021/07/18 09:09:18;;;;;;;10.52;6.40;;;25.60;61.50;;;;;;5074581;28;20115;-72
2021/07/18 09:11:54;;;;;;;9.13;5.65;;;25.50;61.30;;;;;;5082222;28;20043;-73
2021/07/18 09:14:19;;;;;;;9.43;6.20;;;25.60;59.70;;;;;;5083162;28;20551;-73
2021/07/18 09:16:50;;;;;;;12.23;7.70;;;25.70;61.10;;;;;;5079867;28;20077;-73
2021/07/18 09:19:20;;;;;;;10.40;6.32;;;25.80;59.40;;;;;;5074756;28;20039;-75
2021/07/18 09:21:57;;;;;;;10.65;5.63;;;26.00;60.70;;;;;;5058901;28;20059;-75
2021/07/18 09:24:26;;;;;;;9.15;5.22;;;26.00;60.00;;;;;;5066944;28;20064;-73
2021/07/18 09:27:25;;;;;;;10.10;5.47;;;26.10;60.10;;;;;;5083720;28;20045;-75
2021/07/18 09:29:54;;;;;;;11.07;6.60;;;26.50;59.30;;;;;;5062382;28;20043;-73
2021/07/18 09:32:24;;;;;;;9.88;6.10;;;26.50;58.60;;;;;;5066108;28;20043;-74
2021/07/18 09:34:58;;;;;;;10.30;5.45;;;26.30;60.20;;;;;;5070460;28;20039;-74
2021/07/18 09:37:32;;;;;;;9.68;6.60;;;26.30;59.50;;;;;;5072410;28;20032;-75
2021/07/18 09:40:06;;;;;;;10.45;5.57;;;26.20;58.60;;;;;;5065186;28;20037;-74
2021/07/18 09:42:36;;;;;;;8.48;5.78;;;26.30;59.80;;;;;;5069351;28;21744;-74
2021/07/18 09:45:23;;;;;;;9.43;5.13;;;26.30;59.80;;;;;;5067368;28;20126;-74
2021/07/18 09:48:07;;;;;;;8.70;4.70;;;26.60;58.20;;;;;;5067167;28;20035;-74
2021/07/18 09:50:34;;;;;;;7.53;4.40;;;26.30;58.30;;;;;;5067708;28;20047;-75
2021/07/18 09:53:22;;;;;;;9.73;4.18;;;26.40;60.20;;;;;;5064839;28;20052;-75
2021/07/18 09:56:16;;;;;;;6.85;4.07;;;26.60;58.70;;;;;;5068369;28;20491;-74
2021/07/18 09:58:53;;;;;;;9.05;4.85;;;26.70;58.40;;;;;;5066679;28;20032;-72
2021/07/18 10:01:19;;;;;;;8.10;4.75;;;26.70;57.90;;;;;;5066998;28;20047;-74
2021/07/18 10:03:46;;;;;;;8.75;5.03;;;26.60;56.80;;;;;;5072763;28;20391;-74
2021/07/18 10:06:18;;;;;;;8.75;4.57;;;26.70;56.60;;;;;;5076820;28;20061;-72
2021/07/18 10:08:49;;;;;;;9.55;4.32;;;26.70;58.80;;;;;;5072697;28;20035;-73
2021/07/18 10:11:17;;;;;;;7.15;4.65;;;26.90;57.50;;;;;;5076784;28;20028;-74
2021/07/18 10:13:44;;;;;;;8.75;3.90;;;27.00;56.30;;;;;;5079236;28;20115;-73
2021/07/18 10:16:11;;;;;;;6.45;3.65;;;27.20;56.60;;;;;;5081712;28;20024;-72
2021/07/18 10:18:43;;;;;;;8.23;3.42;;;27.40;55.10;;;;;;5078656;28;20394;-72
2021/07/18 10:21:12;;;;;;;6.80;3.45;;;27.20;54.90;;;;;;5075290;28;20067;-71
2021/07/18 10:23:41;;;;;;;8.52;3.60;;;27.30;53.80;;;;;;5074515;28;20822;-72
2021/07/18 10:26:07;;;;;;;7.28;4.03;;;27.30;54.90;;;;;;5076493;28;20047;-72
2021/07/18 10:28:35;;;;;;;10.35;3.60;;;27.10;55.00;;;;;;5069616;28;20439;-73
2021/07/18 10:31:10;;;;;;;7.68;3.60;;;27.00;53.30;;;;;;5074380;28;20032;-73
2021/07/18 10:33:37;;;;;;;5.60;3.40;;;26.80;54.50;;;;;;5074870;28;20044;-72
2021/07/18 10:36:03;;;;;;;8.07;3.67;;;27.10;54.20;;;;;;5074269;28;20032;-73
2021/07/18 10:38:34;;;;;;;6.57;3.58;;;27.30;55.10;;;;;;5079117;28;20066;-70
2021/07/18 10:40:59;;;;;;;10.27;4.50;;;27.30;56.30;;;;;;5076174;28;20040;-72
2021/07/18 10:43:35;;;;;;;6.97;3.10;;;27.40;55.60;;;;;;5079882;28;20048;-70
2021/07/18 10:46:02;;;;;;;6.32;3.50;;;27.60;55.30;;;;;;5088377;28;20555;-74
2021/07/18 10:48:50;;;;;;;7.72;3.47;;;27.70;54.50;;;;;;5074230;28;20038;-73
2021/07/18 10:51:20;;;;;;;7.25;3.90;;;27.90;53.90;;;;;;5083056;28;20085;-72
2021/07/18 10:53:49;;;;;;;6.63;3.35;;;27.80;53.20;;;;;;5081501;28;20025;-73
2021/07/18 10:56:19;;;;;;;6.43;3.53;;;27.70;54.10;;;;;;5080032;28;20020;-71
2021/07/18 10:58:51;;;;;;;8.63;4.30;;;28.00;52.60;;;;;;5085148;28;20028;-72
2021/07/18 11:01:20;;;;;;;7.13;3.65;;;28.20;52.50;;;;;;5084719;28;20032;-73
2021/07/18 11:03:45;;;;;;;8.73;3.80;;;27.90;52.90;;;;;;5087676;28;20107;-73
2021/07/18 11:06:29;;;;;;;7.85;3.55;;;28.10;53.10;;;;;;5086842;28;20124;-72
2021/07/18 11:09:15;;;;;;;6.72;3.92;;;28.10;52.80;;;;;;5081196;28;20027;-73
2021/07/18 11:11:48;;;;;;;10.30;4.60;;;28.20;52.20;;;;;;5085124;28;20122;-73
2021/07/18 11:14:36;;;;;;;9.85;3.30;;;28.30;52.00;;;;;;5082552;28;20433;-73
2021/07/18 11:17:07;;;;;;;7.93;3.92;;;28.40;53.10;;;;;;5076988;28;20040;-74
2021/07/18 11:19:38;;;;;;;9.23;4.35;;;28.10;54.70;;;;;;5077615;28;20433;-73
2021/07/18 11:22:14;;;;;;;6.82;3.60;;;28.00;53.30;;;;;;5079321;28;20059;-72
2021/07/18 11:24:52;;;;;;;7.88;4.05;;;28.10;52.70;;;;;;5081592;28;20036;-73
2021/07/18 11:27:33;;;;;;;10.18;3.90;;;28.00;52.90;;;;;;5082384;28;20048;-73
2021/07/18 11:30:02;;;;;;;10.20;3.92;;;28.10;54.20;;;;;;5082654;28;20032;-73
2021/07/18 11:32:31;;;;;;;7.38;3.97;;;28.20;53.10;;;;;;5081358;28;20471;-72
2021/07/18 11:34:58;;;;;;;7.53;3.78;;;28.60;53.00;;;;;;5081731;28;20033;-74
2021/07/18 11:37:28;;;;;;;6.53;3.55;;;28.90;51.90;;;;;;5073130;28;20041;-74
2021/07/18 11:40:03;;;;;;;7.30;3.80;;;29.00;51.10;;;;;;5087971;28;20028;-73
2021/07/18 11:42:28;;;;;;;9.63;4.18;;;28.70;51.20;;;;;;5079610;28;20044;-73
2021/07/18 11:44:54;;;;;;;7.78;3.40;;;28.70;52.00;;;;;;5082326;28;20040;-72
2021/07/18 11:47:20;;;;;;;7.65;3.88;;;28.80;52.10;;;;;;5086395;28;20067;-72
2021/07/18 11:49:48;;;;;;;8.15;3.45;;;28.60;51.30;;;;;;5079255;28;20420;-72
2021/07/18 11:52:15;;;;;;;9.23;4.22;;;28.60;52.60;;;;;;5080156;28;20037;-72
2021/07/18 11:54:42;;;;;;;7.72;3.83;;;28.50;51.80;;;;;;5075276;28;20386;-73
2021/07/18 11:57:10;;;;;;;6.35;3.38;;;28.60;52.00;;;;;;5081581;28;20131;-73
2021/07/18 11:59:41;;;;;;;8.73;3.70;;;28.60;52.60;;;;;;5076506;28;20039;-72
2021/07/18 12:02:07;;;;;;;6.32;3.05;;;28.60;50.80;;;;;;5074723;28;20029;-73
2021/07/18 12:04:34;;;;;;;9.35;3.78;;;28.60;52.90;;;;;;5073030;28;20383;-74
2021/07/18 12:07:05;;;;;;;6.15;3.40;;;28.50;51.90;;;;;;5080796;28;20036;-73
2021/07/18 12:09:41;;;;;;;7.25;3.30;;;28.60;50.80;;;;;;5081090;28;20103;-73
2021/07/18 12:12:10;;;;;;;7.07;3.17;;;28.90;51.10;;;;;;5074185;28;20043;-73
2021/07/18 12:14:37;;;;;;;6.88;3.70;;;28.70;50.10;;;;;;5082631;28;20028;-74
2021/07/18 12:17:05;;;;;;;5.80;3.20;;;29.00;50.60;;;;;;5075066;28;20081;-71
2021/07/18 12:19:34;;;;;;;6.63;3.67;;;29.00;50.20;;;;;;5073024;28;20502;-73
2021/07/18 12:22:04;;;;;;;7.55;3.10;;;29.20;49.80;;;;;;5081614;28;20040;-73
2021/07/18 12:24:36;;;;;;;8.68;3.80;;;29.40;49.50;;;;;;5082946;28;20060;-74
2021/07/18 12:27:03;;;;;;;7.50;3.35;;;29.00;50.60;;;;;;5078695;28;20401;-74
2021/07/18 12:29:31;;;;;;;7.57;3.03;;;29.00;48.90;;;;;;5073770;28;20037;-73
2021/07/18 12:31:57;;;;;;;6.97;3.75;;;28.80;50.60;;;;;;5080053;28;20032;-76
2021/07/18 12:34:31;;;;;;;8.95;3.50;;;29.10;50.80;;;;;;5080301;28;20028;-72
2021/07/18 12:37:11;;;;;;;6.20;3.13;;;29.20;50.50;;;;;;5079178;28;20109;-74